Dan Fighter — OVUE2 — position and weather

sailwx.info

Track history (hours):
 
Tides and Currents Weather Stations Pressure Air Temp Water Temp Dewpoint Dewpoint Depression Visibility Wind Speed Wind Dir Waves Ship Positions

Dan Fighter

Last reported at 2017-Mar-23 10:32 UTC. Time now 2017-Mar-25 09:50 UTC.
Position N 35°57' W 005°43'.

Length 64 m; draft 3.1 m.

Type: Cargo ship. MMSI: 220386978.

Date/timePositionNaut miles runAvg speedWind from/ knotsBaromVisibWave heightAir tempDewpointWater temp
2017-Mar-23 10:32N 35°57' W 005°43'7 6.8
2017-Mar-23 09:34N 35°58' W 005°35'7 6.6
2017-Mar-23 08:33N 36°00' W 005°27'6 5.9
2017-Mar-23 07:33N 36°02' W 005°20'6 5.6
2017-Mar-23 06:33N 36°04' W 005°13'6 6.0
2017-Mar-23 05:33N 36°06' W 005°06'210 5.0
2017-Mar-21 11:30N 37°18' W 000°60'7 7.6
2017-Mar-21 10:32N 37°22' W 000°52'7 7.5
2017-Mar-21 09:33N 37°26' W 000°45'7 6.8
2017-Mar-21 08:28N 37°31' W 000°38'6 7.0
2017-Mar-21 07:34N 37°36' W 000°32'8 7.5
2017-Mar-21 06:33N 37°42' W 000°27'8 7.6
2017-Mar-21 05:33N 37°49' W 000°22'8 7.7
2017-Mar-21 04:32N 37°55' W 000°16'34 7.6
2017-Mar-21 00:04N 38°24' E 000°07'  
Track history (hours):
 
Tides and Currents Weather Stations Pressure Air Temp Water Temp Dewpoint Dewpoint Depression Visibility Wind Speed Wind Dir Waves Ship Positions

Dan Fighter

Last reported at 2017-Mar-23 10:32 UTC. Time now 2017-Mar-25 09:50 UTC.
Position N 35°57' W 005°43'.

Length 64 m; draft 3.1 m.

Type: Cargo ship. MMSI: 220386978.

Date/timePositionNaut miles runAvg speedWind from/ knotsBaromVisibWave heightAir tempDewpointWater temp
2017-Mar-23 10:32N 35°57' W 005°43'7 6.8
2017-Mar-23 09:34N 35°58' W 005°35'7 6.6
2017-Mar-23 08:33N 36°00' W 005°27'6 5.9
2017-Mar-23 07:33N 36°02' W 005°20'6 5.6
2017-Mar-23 06:33N 36°04' W 005°13'6 6.0
2017-Mar-23 05:33N 36°06' W 005°06'210 5.0
2017-Mar-21 11:30N 37°18' W 000°60'7 7.6
2017-Mar-21 10:32N 37°22' W 000°52'7 7.5
2017-Mar-21 09:33N 37°26' W 000°45'7 6.8
2017-Mar-21 08:28N 37°31' W 000°38'6 7.0
2017-Mar-21 07:34N 37°36' W 000°32'8 7.5
2017-Mar-21 06:33N 37°42' W 000°27'8 7.6
2017-Mar-21 05:33N 37°49' W 000°22'8 7.7
2017-Mar-21 04:32N 37°55' W 000°16'34 7.6
2017-Mar-21 00:04N 38°24' E 000°07'  

Dump ship's entire track history